Time;durP1;ratioP1;P1;durP2;ratioP2;P2;SDS_P1;SDS_P2;PMS_P1;PMS_P2;Temp;Humidity;BMP_temperature;BMP_pressure;BME280_temperature;BME280_humidity;BME280_pressure;Samples;Min_cycle;Max_cycle;Signal;HPM_P1;HPM_P2
2024/03/24 00:01:34;;;;;;;3.05;1.60;;;9.70;62.50;11.40;100214.00;;;;4998641;28;20193;-81
2024/03/24 00:04:01;;;;;;;2.75;1.55;;;9.70;62.40;11.50;100215.00;;;;4997867;28;20198;-82
2024/03/24 00:06:27;;;;;;;3.33;1.90;;;9.80;62.60;11.50;100219.00;;;;4995194;28;20189;-82
2024/03/24 00:08:54;;;;;;;2.17;1.42;;;9.80;62.40;11.50;100213.00;;;;4993873;28;20237;-80
2024/03/24 00:11:20;;;;;;;3.05;1.40;;;9.80;62.60;11.60;100214.00;;;;4998449;28;20243;-81
2024/03/24 00:13:48;;;;;;;2.42;1.75;;;9.80;62.70;11.60;100221.00;;;;4996863;28;20252;-78
2024/03/24 00:16:15;;;;;;;7.43;2.17;;;9.90;62.80;11.60;100223.00;;;;4997381;28;20638;-84
2024/03/24 00:18:42;;;;;;;4.80;1.80;;;9.90;62.90;11.60;100223.00;;;;4996434;28;20197;-83
2024/03/24 00:21:08;;;;;;;3.33;1.52;;;9.90;63.00;11.70;100214.00;;;;4997388;28;20296;-84
2024/03/24 00:23:35;;;;;;;3.60;1.92;;;10.00;63.10;11.70;100214.00;;;;4990640;28;20198;-84
2024/03/24 00:26:01;;;;;;;2.30;1.63;;;10.00;63.10;11.70;100212.00;;;;4992690;28;20190;-85
2024/03/24 00:28:28;;;;;;;2.50;2.03;;;10.00;63.00;11.70;100196.00;;;;4999113;28;20236;-81
2024/03/24 00:30:56;;;;;;;5.07;2.67;;;10.00;63.10;11.80;100195.00;;;;5002046;28;20714;-80
2024/03/24 00:33:23;;;;;;;3.75;1.90;;;10.10;63.30;11.80;100185.00;;;;5002844;28;20267;-78
2024/03/24 00:35:49;;;;;;;2.35;2.00;;;10.10;63.30;11.80;100174.00;;;;5004130;28;20296;-79
2024/03/24 00:38:16;;;;;;;3.50;1.90;;;10.10;63.30;11.80;100173.00;;;;4999849;28;20621;-79
2024/03/24 00:40:42;;;;;;;5.68;2.00;;;10.10;63.20;11.80;100165.00;;;;4994259;28;20217;-78
2024/03/24 00:43:09;;;;;;;4.00;2.33;;;10.10;63.40;11.80;100156.00;;;;5005297;28;20246;-78
2024/03/24 00:45:35;;;;;;;2.60;2.00;;;10.20;63.50;11.80;100168.00;;;;4999852;28;20250;-80
2024/03/24 00:48:04;;;;;;;4.57;1.92;;;10.10;63.40;11.80;100151.00;;;;5000059;28;20217;-78
2024/03/24 00:50:30;;;;;;;2.20;1.52;;;10.10;63.50;11.90;100148.00;;;;4997855;28;20218;-78
2024/03/24 00:52:57;;;;;;;2.67;1.92;;;10.20;64.10;11.90;100148.00;;;;5002343;28;20213;-83
2024/03/24 00:55:24;;;;;;;1.73;1.50;;;10.20;63.60;11.90;100143.00;;;;5002956;28;20208;-77
2024/03/24 00:57:52;;;;;;;4.65;2.45;;;10.20;63.60;11.90;100136.00;;;;5001472;28;20202;-78
2024/03/24 01:00:18;;;;;;;3.15;2.15;;;10.20;63.60;11.90;100140.00;;;;5006636;28;20208;-78
2024/03/24 01:02:49;;;;;;;2.50;1.83;;;10.20;63.60;11.90;100128.00;;;;5005597;28;20317;-78
2024/03/24 01:05:16;;;;;;;2.38;2.15;;;10.20;64.40;11.90;100130.00;;;;5001928;28;20200;-79
2024/03/24 01:07:43;;;;;;;3.92;2.65;;;10.30;63.70;12.00;100117.00;;;;4998804;28;20198;-78
2024/03/24 01:10:10;;;;;;;3.72;2.78;;;10.30;63.70;12.00;100124.00;;;;5005250;28;22596;-81
2024/03/24 01:12:37;;;;;;;3.17;2.28;;;10.30;64.00;12.00;100116.00;;;;4998503;28;20613;-78
2024/03/24 01:15:04;;;;;;;3.05;2.13;;;10.30;63.80;12.00;100105.00;;;;4993821;28;20675;-79
2024/03/24 01:17:31;;;;;;;3.15;2.30;;;10.30;63.80;12.00;100109.00;;;;5003475;28;20201;-78
2024/03/24 01:19:57;;;;;;;3.28;1.98;;;10.30;63.70;12.00;100120.00;;;;4993374;28;20218;-80
2024/03/24 01:22:26;;;;;;;1.92;1.70;;;10.30;63.80;12.00;100114.00;;;;4993537;28;20552;-78
2024/03/24 01:24:52;;;;;;;2.60;2.13;;;10.30;64.00;12.00;100108.00;;;;4976638;28;20202;-82
2024/03/24 01:27:19;;;;;;;2.75;1.75;;;10.30;63.80;12.00;100089.00;;;;4991159;28;20221;-80
2024/03/24 01:29:45;;;;;;;3.05;1.77;;;10.30;64.10;12.00;100101.00;;;;4993805;28;20317;-78
2024/03/24 01:32:12;;;;;;;3.63;1.90;;;10.40;64.00;12.00;100085.00;;;;4994147;28;20193;-77
2024/03/24 01:34:38;;;;;;;2.03;1.40;;;10.30;64.00;12.10;100077.00;;;;4993768;28;20297;-78
2024/03/24 01:37:05;;;;;;;3.03;1.65;;;10.40;64.00;12.10;100082.00;;;;4993274;28;20670;-79
2024/03/24 01:39:34;;;;;;;3.13;1.60;;;10.40;64.10;12.10;100078.00;;;;4993024;28;20190;-79
2024/03/24 01:42:01;;;;;;;2.47;1.63;;;10.40;64.00;12.10;100075.00;;;;4977681;28;20237;-79
2024/03/24 01:44:27;;;;;;;3.85;1.73;;;10.40;64.20;12.10;100064.00;;;;4991998;28;20190;-79
2024/03/24 01:46:54;;;;;;;6.38;1.98;;;10.40;64.00;12.20;100067.00;;;;4993070;28;20232;-77
2024/03/24 01:49:21;;;;;;;3.60;2.05;;;10.50;64.20;12.20;100055.00;;;;4993503;28;20216;-81
2024/03/24 01:51:48;;;;;;;5.13;1.58;;;10.50;64.10;12.20;100048.00;;;;4992589;28;20220;-77
2024/03/24 01:54:15;;;;;;;4.65;1.98;;;10.50;64.20;12.20;100050.00;;;;4993580;28;20198;-77
2024/03/24 01:56:44;;;;;;;4.05;1.85;;;10.50;64.20;12.20;100043.00;;;;4984169;28;20667;-77
2024/03/24 01:59:10;;;;;;;3.65;1.80;;;10.50;64.30;12.20;100043.00;;;;4992823;28;20202;-77
2024/03/24 02:01:37;;;;;;;4.18;1.92;;;10.60;64.30;12.30;100046.00;;;;4992664;28;20285;-79
2024/03/24 02:04:08;;;;;;;4.85;1.70;;;10.60;64.40;12.20;100038.00;;;;4992971;28;20273;-82
2024/03/24 02:06:35;;;;;;;5.07;2.72;;;10.60;64.40;12.30;100049.00;;;;4993847;28;20206;-84
2024/03/24 02:09:01;;;;;;;3.08;2.08;;;10.60;64.40;12.20;100034.00;;;;4992251;28;20185;-87
2024/03/24 02:11:30;;;;;;;2.20;1.23;;;10.60;64.20;12.20;100044.00;;;;4991901;28;20225;-83
2024/03/24 02:13:59;;;;;;;2.83;1.15;;;10.60;64.10;12.10;100054.00;;;;4991839;28;20766;-80
2024/03/24 02:16:26;;;;;;;2.53;1.27;;;10.60;64.00;12.10;100048.00;;;;4993281;28;20193;-83
2024/03/24 02:18:52;;;;;;;2.22;0.98;;;10.60;63.90;12.10;100045.00;;;;4992955;28;20224;-83
2024/03/24 02:21:19;;;;;;;3.25;1.73;;;10.60;64.00;12.10;100049.00;;;;4992438;28;20217;-82
2024/03/24 02:23:48;;;;;;;2.92;1.20;;;10.60;64.00;12.10;100040.00;;;;4991704;28;20308;-85
2024/03/24 02:26:15;;;;;;;4.15;1.67;;;10.60;64.00;12.10;100027.00;;;;4991126;28;20237;-80
2024/03/24 02:28:42;;;;;;;2.38;1.65;;;10.60;64.20;12.10;100023.00;;;;4992228;28;20582;-84
2024/03/24 02:31:09;;;;;;;3.97;1.52;;;10.60;64.10;12.10;100021.00;;;;4992377;28;20313;-80
2024/03/24 02:33:35;;;;;;;5.55;1.85;;;10.50;64.30;12.10;100016.00;;;;4991883;28;20189;-79
2024/03/24 02:36:03;;;;;;;2.17;1.42;;;10.50;64.30;12.20;100022.00;;;;4988536;28;20208;-79
2024/03/24 02:38:29;;;;;;;2.47;1.65;;;10.50;65.00;12.20;100018.00;;;;4992012;28;20264;-80
2024/03/24 02:40:57;;;;;;;3.67;1.85;;;10.50;64.40;12.20;100011.00;;;;4993840;28;20206;-80
2024/03/24 02:43:23;;;;;;;3.63;1.63;;;10.50;64.40;12.20;100015.00;;;;4992017;28;20198;-79
2024/03/24 02:45:56;;;;;;;3.20;1.20;;;10.50;64.50;12.20;100026.00;;;;4991673;28;20228;-81
2024/03/24 02:48:22;;;;;;;3.22;1.00;;;10.50;64.50;12.20;100005.00;;;;4992949;28;20706;-81
2024/03/24 02:50:49;;;;;;;3.33;1.35;;;10.50;64.50;12.20;99994.00;;;;4980214;28;20722;-81
2024/03/24 02:53:16;;;;;;;3.55;1.60;;;10.50;64.70;12.20;99996.00;;;;4993502;28;20574;-82
2024/03/24 02:55:46;;;;;;;2.53;1.30;;;10.60;65.40;12.20;99994.00;;;;4993157;28;20240;-83
2024/03/24 02:58:14;;;;;;;3.20;1.45;;;10.60;64.60;12.20;99997.00;;;;4994431;28;20193;-83
2024/03/24 03:00:42;;;;;;;3.30;1.65;;;10.60;64.60;12.30;99987.00;;;;4992379;28;20206;-81
2024/03/24 03:03:08;;;;;;;2.85;1.60;;;10.60;64.60;12.30;99990.00;;;;4992007;28;20698;-82
2024/03/24 03:05:35;;;;;;;5.65;1.83;;;10.60;64.70;12.30;99998.00;;;;4987230;28;20201;-83
2024/03/24 03:08:02;;;;;;;2.78;1.60;;;10.60;64.70;12.30;99999.00;;;;4991643;28;20284;-87
2024/03/24 03:10:31;;;;;;;4.28;1.55;;;10.60;64.80;12.30;99998.00;;;;4991276;28;20243;-81
2024/03/24 03:12:59;;;;;;;4.28;1.98;;;10.70;64.90;12.30;99991.00;;;;4991748;28;20197;-81
2024/03/24 03:15:27;;;;;;;2.92;1.77;;;10.70;64.90;12.40;99995.00;;;;4992986;28;20194;-87
2024/03/24 03:17:54;;;;;;;6.00;2.03;;;10.70;64.90;12.40;99990.00;;;;4990308;28;20289;-79
2024/03/24 03:20:20;;;;;;;5.72;2.53;;;10.70;65.00;12.40;99998.00;;;;4985574;28;20224;-80
2024/03/24 03:22:48;;;;;;;8.60;2.40;;;10.70;64.90;12.40;99994.00;;;;4983425;28;20244;-81
2024/03/24 03:25:14;;;;;;;3.65;1.27;;;10.80;65.00;12.40;99997.00;;;;4986233;28;20216;-82
2024/03/24 03:27:42;;;;;;;5.13;1.98;;;10.80;65.00;12.40;99987.00;;;;4991507;28;20213;-80
2024/03/24 03:30:09;;;;;;;4.18;1.50;;;10.80;65.10;12.50;99996.00;;;;4991041;28;20221;-81
2024/03/24 03:32:38;;;;;;;7.65;2.58;;;10.80;65.10;12.40;100019.00;;;;4993536;28;20196;-81
2024/03/24 03:35:05;;;;;;;8.82;2.22;;;10.80;65.20;12.40;100031.00;;;;4982073;28;20198;-82
2024/03/24 03:37:32;;;;;;;2.20;1.60;;;10.80;65.30;12.40;100030.00;;;;4986570;28;20679;-88
2024/03/24 03:39:58;;;;;;;1.92;0.77;;;10.80;64.50;12.20;100048.00;;;;4991824;28;20196;-88
2024/03/24 03:42:25;;;;;;;2.58;0.45;;;10.80;63.90;12.20;100034.00;;;;4989896;28;20248;-88
2024/03/24 03:44:52;;;;;;;1.30;0.40;;;10.70;63.30;12.00;100034.00;;;;4991852;28;20208;-82
2024/03/24 03:47:22;;;;;;;2.38;0.57;;;10.70;63.00;11.90;100035.00;;;;4991042;28;20717;-85
2024/03/24 03:49:50;;;;;;;0.60;0.30;;;10.60;62.90;11.80;100047.00;;;;4996291;28;20205;-85
2024/03/24 03:52:18;;;;;;;0.68;0.28;;;10.50;62.80;11.80;100052.00;;;;4986528;28;20232;-85
2024/03/24 03:54:47;;;;;;;1.48;0.13;;;10.50;62.90;11.70;100043.00;;;;4992035;28;20225;-84
2024/03/24 03:57:14;;;;;;;0.70;0.55;;;10.40;63.10;11.70;100040.00;;;;4992105;28;20229;-86
2024/03/24 03:59:40;;;;;;;1.67;0.30;;;10.30;63.20;11.60;100039.00;;;;4991338;28;20220;-89
2024/03/24 04:02:08;;;;;;;2.92;0.45;;;10.20;63.20;11.60;100043.00;;;;4994752;28;20201;-86
2024/03/24 04:04:34;;;;;;;1.23;0.25;;;10.10;63.20;11.50;100037.00;;;;4994513;28;20225;-90
2024/03/24 04:07:02;;;;;;;1.30;0.40;;;10.10;63.30;11.50;100032.00;;;;4997942;28;20209;-89
2024/03/24 04:09:28;;;;;;;0.95;0.47;;;10.00;63.40;11.50;100016.00;;;;4995548;28;20196;-87
2024/03/24 04:11:55;;;;;;;0.75;0.35;;;10.00;63.60;11.40;100017.00;;;;4995845;28;20225;-86
2024/03/24 04:14:21;;;;;;;0.77;0.52;;;10.00;63.60;11.40;100009.00;;;;4991755;28;20289;-85
2024/03/24 04:16:48;;;;;;;2.42;0.57;;;9.90;63.60;11.40;100014.00;;;;4990669;28;20201;-87
2024/03/24 04:19:14;;;;;;;1.15;0.40;;;9.90;63.70;11.30;100018.00;;;;4994734;28;20678;-89
2024/03/24 04:21:42;;;;;;;1.13;0.40;;;9.80;63.80;11.30;100009.00;;;;4995685;28;20198;-88
2024/03/24 04:24:09;;;;;;;1.02;0.40;;;9.80;63.90;11.30;100010.00;;;;4994331;28;20248;-86
2024/03/24 04:26:36;;;;;;;0.68;0.30;;;9.80;63.90;11.20;100004.00;;;;4994100;28;20190;-83
2024/03/24 04:29:02;;;;;;;1.13;0.40;;;9.70;63.90;11.20;99999.00;;;;4993625;28;20198;-87
2024/03/24 04:31:29;;;;;;;0.57;0.28;;;9.70;64.00;11.20;100012.00;;;;4995219;28;20271;-83
2024/03/24 04:33:55;;;;;;;0.38;0.28;;;9.70;64.00;11.20;100012.00;;;;4994614;28;20652;-84
2024/03/24 04:36:23;;;;;;;0.43;0.20;;;9.70;63.90;11.20;100007.00;;;;4995750;28;20610;-85
2024/03/24 04:38:49;;;;;;;1.65;0.38;;;9.70;63.90;11.20;100007.00;;;;4992265;28;20280;-86
2024/03/24 04:41:17;;;;;;;0.55;0.50;;;9.70;64.00;11.20;100019.00;;;;4994274;28;20743;-84
2024/03/24 04:43:43;;;;;;;1.23;0.17;;;9.70;65.00;11.20;100021.00;;;;4993824;28;20228;-83
2024/03/24 04:46:11;;;;;;;1.13;0.45;;;9.70;64.40;11.30;100031.00;;;;4989944;28;20277;-84
2024/03/24 04:48:39;;;;;;;1.35;0.45;;;9.70;64.40;11.30;100028.00;;;;4987128;28;20575;-83
2024/03/24 04:51:05;;;;;;;1.58;0.52;;;9.60;64.40;11.30;100026.00;;;;4995402;28;20222;-84
2024/03/24 04:53:32;;;;;;;1.77;0.73;;;9.70;64.50;11.30;100021.00;;;;4989051;28;20201;-84
2024/03/24 04:55:58;;;;;;;0.52;0.35;;;9.60;64.30;11.30;100018.00;;;;4994126;28;20280;-82
2024/03/24 04:58:27;;;;;;;1.42;0.30;;;9.60;64.30;11.30;100020.00;;;;4998692;28;20240;-82
2024/03/24 05:00:53;;;;;;;0.50;0.40;;;9.70;64.40;11.30;100026.00;;;;4993793;28;20193;-85
2024/03/24 05:03:20;;;;;;;0.80;0.50;;;9.60;64.40;11.30;100024.00;;;;4994859;28;20200;-84
2024/03/24 05:05:48;;;;;;;3.10;0.90;;;9.60;64.40;11.30;100020.00;;;;4994492;28;20194;-79
2024/03/24 05:08:16;;;;;;;1.08;0.45;;;9.60;64.30;11.30;100021.00;;;;4975199;28;20202;-82
2024/03/24 05:10:42;;;;;;;1.00;0.60;;;9.60;64.30;11.30;100005.00;;;;4992533;28;20222;-84
2024/03/24 05:13:09;;;;;;;1.38;0.52;;;9.60;64.40;11.20;100007.00;;;;4993557;28;20205;-82
2024/03/24 05:15:37;;;;;;;1.20;0.50;;;9.60;64.40;11.20;100016.00;;;;4994261;28;20200;-82
2024/03/24 05:18:08;;;;;;;0.95;0.40;;;9.60;64.40;11.20;100017.00;;;;4994008;28;20710;-84
2024/03/24 05:20:35;;;;;;;1.85;0.80;;;9.60;64.50;11.20;100027.00;;;;4994308;28;20257;-86
2024/03/24 05:23:03;;;;;;;3.35;0.70;;;9.60;64.50;11.20;100029.00;;;;4992216;28;20836;-87
2024/03/24 05:25:29;;;;;;;1.50;0.68;;;9.60;64.40;11.20;100022.00;;;;4993363;28;21834;-85
2024/03/24 05:27:56;;;;;;;0.77;0.43;;;9.60;64.40;11.20;100037.00;;;;4993061;28;20190;-84
2024/03/24 05:30:25;;;;;;;0.88;0.38;;;9.60;64.50;11.20;100031.00;;;;4992972;28;20203;-83
2024/03/24 05:32:54;;;;;;;1.50;0.50;;;9.60;64.40;11.20;100037.00;;;;4993103;28;20198;-82
2024/03/24 05:35:20;;;;;;;1.55;0.55;;;9.60;64.30;11.20;100055.00;;;;4993918;28;20193;-86
2024/03/24 05:37:47;;;;;;;1.42;0.70;;;9.60;64.40;11.20;100062.00;;;;4992102;28;20198;-83
2024/03/24 05:40:13;;;;;;;3.58;0.80;;;9.60;64.30;11.20;100067.00;;;;4993081;28;20186;-87
2024/03/24 05:42:40;;;;;;;2.40;0.93;;;9.60;64.30;11.20;100070.00;;;;4993216;28;20202;-88
2024/03/24 05:45:07;;;;;;;2.17;0.82;;;9.60;64.50;11.10;100078.00;;;;4993157;28;20200;-87
2024/03/24 05:47:34;;;;;;;2.30;0.93;;;9.60;64.40;11.00;100073.00;;;;4995615;28;20745;-84
2024/03/24 05:50:02;;;;;;;2.85;0.60;;;9.60;64.40;10.90;100073.00;;;;4994735;28;20276;-85
2024/03/24 05:52:30;;;;;;;0.77;0.40;;;9.60;64.50;10.90;100073.00;;;;4992847;28;20702;-89
2024/03/24 05:54:56;;;;;;;1.00;0.50;;;9.60;65.20;10.90;100066.00;;;;4992235;28;20710;-89
2024/03/24 05:57:23;;;;;;;0.93;0.30;;;9.50;64.50;10.90;100052.00;;;;4993554;28;20292;-88
2024/03/24 05:59:49;;;;;;;0.88;0.30;;;9.50;64.50;10.90;100054.00;;;;4994122;28;20193;-87
2024/03/24 06:02:17;;;;;;;0.50;0.40;;;9.50;64.60;10.90;100057.00;;;;4980319;28;20667;-88
2024/03/24 06:04:43;;;;;;;1.20;0.38;;;9.50;65.40;10.90;100061.00;;;;4993436;28;20618;-84
2024/03/24 06:07:12;;;;;;;1.40;0.70;;;9.40;64.70;10.80;100053.00;;;;4993985;28;20233;-86
2024/03/24 06:09:38;;;;;;;2.42;0.70;;;9.40;64.70;10.90;100058.00;;;;4993514;28;20293;-86
2024/03/24 06:12:05;;;;;;;2.67;0.93;;;9.40;64.80;10.90;100059.00;;;;4994064;28;20336;-86
2024/03/24 06:14:32;;;;;;;1.52;0.63;;;9.40;64.90;10.90;100064.00;;;;4993371;28;20703;-87
2024/03/24 06:16:58;;;;;;;2.45;0.60;;;9.40;65.00;10.90;100051.00;;;;4995041;28;20186;-87
2024/03/24 06:19:26;;;;;;;2.33;0.52;;;9.40;65.10;10.90;100060.00;;;;4992361;28;20292;-90
2024/03/24 06:21:53;;;;;;;2.10;0.70;;;9.40;65.10;10.90;100066.00;;;;4983827;28;20209;-90
2024/03/24 06:24:21;;;;;;;1.88;0.80;;;9.40;65.10;10.90;100066.00;;;;4992446;28;20325;-89
2024/03/24 06:26:47;;;;;;;2.45;1.10;;;9.40;65.10;11.00;100068.00;;;;4993811;28;20204;-88
2024/03/24 06:29:14;;;;;;;2.58;1.10;;;9.40;65.80;11.00;100069.00;;;;4993933;28;20264;-89
2024/03/24 06:31:40;;;;;;;1.42;0.80;;;9.40;65.20;11.10;100066.00;;;;4993949;28;20232;-89
2024/03/24 06:34:07;;;;;;;2.45;0.85;;;9.40;65.40;11.10;100062.00;;;;4991708;28;20225;-89
2024/03/24 06:36:34;;;;;;;2.35;0.95;;;9.40;65.50;11.20;100058.00;;;;4986984;28;20264;-88
2024/03/24 06:39:01;;;;;;;3.22;0.90;;;9.40;65.60;11.20;100048.00;;;;4989700;28;20190;-89
2024/03/24 06:41:28;;;;;;;1.75;0.80;;;9.40;65.50;11.20;100049.00;;;;4986846;28;20224;-90
2024/03/24 06:43:56;;;;;;;2.38;1.20;;;9.50;65.60;11.30;100052.00;;;;4976234;28;20217;-86
2024/03/24 06:46:22;;;;;;;2.10;1.17;;;9.50;65.60;11.30;100054.00;;;;4983657;28;20703;-89
2024/03/24 06:48:49;;;;;;;1.98;0.93;;;9.50;65.70;11.40;100053.00;;;;4993038;28;20214;-87
2024/03/24 06:51:15;;;;;;;2.25;1.10;;;9.50;65.80;11.40;100056.00;;;;4996605;28;20221;-86
2024/03/24 06:53:43;;;;;;;3.65;1.13;;;9.60;65.90;11.40;100055.00;;;;4999717;28;20197;-89
2024/03/24 06:56:10;;;;;;;3.50;1.20;;;9.60;65.80;11.40;100055.00;;;;4992948;28;20247;-88
2024/03/24 06:58:40;;;;;;;5.72;1.35;;;9.60;65.80;11.40;100059.00;;;;4990827;28;20198;-83
2024/03/24 07:01:09;;;;;;;4.30;1.35;;;9.70;65.90;11.50;100061.00;;;;4996698;28;20627;-88
2024/03/24 07:03:38;;;;;;;1.98;1.45;;;9.70;66.00;11.60;100075.00;;;;4991506;28;20202;-87
2024/03/24 07:06:06;;;;;;;5.15;1.80;;;9.70;66.10;11.60;100063.00;;;;4989051;28;20232;-87
2024/03/24 07:08:33;;;;;;;4.97;1.65;;;9.80;66.20;11.70;100079.00;;;;4993532;28;20215;-88
2024/03/24 07:11:00;;;;;;;2.35;1.20;;;9.90;66.40;11.70;100077.00;;;;4993077;28;20321;-87
2024/03/24 07:13:29;;;;;;;3.58;1.23;;;9.90;66.40;11.80;100075.00;;;;4989393;28;20818;-88
2024/03/24 07:15:57;;;;;;;4.22;1.52;;;9.90;66.20;11.80;100076.00;;;;4992157;28;20197;-87
2024/03/24 07:18:25;;;;;;;4.45;1.70;;;10.00;66.30;11.80;100080.00;;;;4991913;28;20282;-85
2024/03/24 07:20:59;;;;;;;3.40;1.92;;;10.00;66.30;11.80;100086.00;;;;4990008;28;20255;-87
2024/03/24 07:23:26;;;;;;;2.63;1.77;;;10.10;66.40;11.90;100078.00;;;;4987886;28;20200;-84
2024/03/24 07:25:52;;;;;;;6.20;1.63;;;10.10;66.20;11.90;100069.00;;;;4991251;28;20206;-86
2024/03/24 07:28:20;;;;;;;3.20;1.65;;;10.20;66.10;11.90;100075.00;;;;4990565;28;20202;-87
2024/03/24 07:30:46;;;;;;;5.80;1.67;;;10.20;66.00;12.00;100086.00;;;;4990640;28;20565;-91
2024/03/24 07:33:15;;;;;;;4.53;1.70;;;10.20;66.00;12.00;100077.00;;;;4991117;28;20281;-77
2024/03/24 07:35:41;;;;;;;2.67;1.63;;;10.30;66.20;12.00;100077.00;;;;4983694;28;20195;-80
2024/03/24 07:38:08;;;;;;;9.43;2.17;;;10.30;66.10;12.10;100078.00;;;;4986163;28;20225;-79
2024/03/24 07:40:34;;;;;;;3.85;1.92;;;10.30;66.20;12.20;100086.00;;;;4998776;28;20212;-79
2024/03/24 07:43:01;;;;;;;11.85;2.03;;;10.40;66.30;12.20;100095.00;;;;5001036;28;20247;-77
2024/03/24 07:45:30;;;;;;;5.50;2.10;;;10.40;66.30;12.20;100081.00;;;;4992895;28;20600;-77
2024/03/24 07:47:57;;;;;;;3.05;1.70;;;10.50;66.40;12.30;100107.00;;;;5004719;28;20658;-76
2024/03/24 07:50:24;;;;;;;5.38;2.35;;;10.50;66.30;12.30;100081.00;;;;5007589;28;20204;-79
2024/03/24 07:52:51;;;;;;;6.22;2.03;;;10.60;66.20;12.40;100085.00;;;;4976487;28;20284;-79
2024/03/24 07:55:19;;;;;;;4.93;1.95;;;10.60;66.20;12.40;100090.00;;;;4976643;28;20202;-78
2024/03/24 07:57:46;;;;;;;5.80;2.28;;;10.70;66.30;12.40;100085.00;;;;4976604;28;20235;-78
2024/03/24 08:00:14;;;;;;;18.25;2.30;;;10.70;66.00;12.50;100083.00;;;;4976707;28;20210;-80
2024/03/24 08:02:41;;;;;;;6.35;1.63;;;10.80;65.90;12.50;100084.00;;;;4977489;28;20206;-79
2024/03/24 08:05:08;;;;;;;7.35;2.00;;;10.80;65.60;12.50;100091.00;;;;4992020;28;20751;-80
2024/03/24 08:07:36;;;;;;;10.52;2.10;;;10.80;65.50;12.50;100101.00;;;;4995184;28;20675;-81
2024/03/24 08:10:03;;;;;;;3.22;1.55;;;10.90;65.50;12.50;100120.00;;;;4983964;28;20198;-81
2024/03/24 08:12:30;;;;;;;5.72;1.98;;;10.90;65.40;12.50;100094.00;;;;4976331;28;20262;-80
2024/03/24 08:14:56;;;;;;;7.40;1.50;;;10.90;65.20;12.50;100108.00;;;;4994510;28;20201;-79
2024/03/24 08:17:23;;;;;;;6.35;1.83;;;10.90;65.00;12.50;100113.00;;;;4995410;28;20892;-85
2024/03/24 08:19:53;;;;;;;5.90;1.45;;;10.90;65.00;12.50;100099.00;;;;4995314;28;20655;-85
2024/03/24 08:22:21;;;;;;;5.95;1.38;;;10.90;64.90;12.50;100102.00;;;;4992219;28;20197;-84
2024/03/24 08:24:48;;;;;;;4.38;1.58;;;10.90;64.90;12.50;100105.00;;;;4981284;28;20190;-82
2024/03/24 08:27:16;;;;;;;5.00;1.58;;;10.90;65.00;12.60;100107.00;;;;4994803;28;20247;-86
2024/03/24 08:29:42;;;;;;;4.13;2.08;;;10.90;65.20;12.60;100103.00;;;;4994963;28;20216;-85
2024/03/24 08:32:09;;;;;;;1.75;1.13;;;11.00;65.40;12.70;100106.00;;;;4994456;28;20221;-87
2024/03/24 08:34:35;;;;;;;7.55;2.58;;;11.00;65.40;12.70;100113.00;;;;4995151;28;20255;-86
2024/03/24 08:37:02;;;;;;;6.05;2.50;;;11.00;65.30;12.80;100103.00;;;;4994627;28;20190;-84
2024/03/24 08:39:28;;;;;;;4.72;2.20;;;11.10;65.40;12.80;100114.00;;;;4994510;28;20213;-87
2024/03/24 08:41:57;;;;;;;7.35;2.20;;;11.10;65.40;12.70;100125.00;;;;4995094;28;20204;-84
2024/03/24 08:44:23;;;;;;;4.05;1.73;;;11.10;65.20;12.70;100114.00;;;;4995016;28;20217;-84
2024/03/24 08:46:50;;;;;;;6.28;1.30;;;11.10;65.00;12.70;100108.00;;;;4991672;28;20317;-87
2024/03/24 08:49:16;;;;;;;4.13;1.20;;;11.10;64.80;12.70;100114.00;;;;4994615;28;20530;-80
2024/03/24 08:51:43;;;;;;;3.35;1.08;;;11.10;64.30;12.50;100116.00;;;;4994609;28;20673;-86
2024/03/24 08:54:09;;;;;;;1.55;0.60;;;11.10;63.60;12.50;100112.00;;;;4994947;28;20194;-85
2024/03/24 08:56:36;;;;;;;4.75;0.77;;;11.00;63.20;12.40;100116.00;;;;4995035;28;20194;-84
2024/03/24 08:59:04;;;;;;;1.70;0.60;;;10.90;63.20;12.40;100107.00;;;;4995001;28;20206;-84
2024/03/24 09:01:31;;;;;;;3.50;1.02;;;10.80;63.40;12.40;100113.00;;;;4993488;28;20284;-79
2024/03/24 09:03:57;;;;;;;5.32;1.05;;;10.80;63.70;12.40;100112.00;;;;4994178;28;20546;-82
2024/03/24 09:06:24;;;;;;;3.38;1.40;;;10.80;64.20;12.40;100119.00;;;;4995835;28;20617;-84
2024/03/24 09:08:50;;;;;;;3.20;1.30;;;10.80;64.50;12.40;100125.00;;;;5002877;28;20202;-85
2024/03/24 09:11:18;;;;;;;6.40;1.92;;;10.70;64.60;12.40;100132.00;;;;5001805;28;20248;-81
2024/03/24 09:13:44;;;;;;;8.40;1.77;;;10.80;64.80;12.40;100130.00;;;;4994735;28;20193;-79
2024/03/24 09:16:12;;;;;;;3.95;1.20;;;10.80;64.80;12.40;100173.00;;;;4995144;28;20615;-87
2024/03/24 09:18:38;;;;;;;3.92;1.23;;;10.80;64.80;12.30;100170.00;;;;4998805;28;20190;-81
2024/03/24 09:21:06;;;;;;;2.53;1.20;;;10.80;64.70;12.10;100163.00;;;;4993469;28;20260;-78
2024/03/24 09:23:32;;;;;;;1.45;0.77;;;10.70;64.10;12.00;100157.00;;;;4995270;28;20202;-94
2024/03/24 09:25:59;;;;;;;0.95;0.40;;;10.70;63.90;11.90;100156.00;;;;4994087;28;20675;-76
2024/03/24 09:28:26;;;;;;;1.50;0.50;;;10.60;63.90;11.90;100157.00;;;;4993681;28;20205;-76
2024/03/24 09:30:58;;;;;;;1.02;0.57;;;10.60;64.10;11.80;100172.00;;;;4991378;28;20190;-74
2024/03/24 09:33:25;;;;;;;3.25;0.82;;;10.50;64.30;11.80;100174.00;;;;4985361;28;20221;-76
2024/03/24 09:35:53;;;;;;;2.83;0.80;;;10.50;64.40;11.80;100169.00;;;;4990034;28;20190;-75
2024/03/24 09:38:19;;;;;;;2.72;0.60;;;10.50;64.60;11.80;100173.00;;;;4993048;28;20190;-78
2024/03/24 09:40:48;;;;;;;2.03;0.65;;;10.50;64.90;11.80;100169.00;;;;4993012;28;20581;-77
2024/03/24 09:43:17;;;;;;;3.88;0.65;;;10.50;65.10;11.80;100168.00;;;;4982450;28;20203;-75
2024/03/24 09:45:44;;;;;;;0.95;0.60;;;10.50;65.30;11.80;100167.00;;;;4993126;28;20304;-77
2024/03/24 09:48:13;;;;;;;7.28;0.88;;;10.40;65.40;11.90;100159.00;;;;4984135;28;20204;-76
2024/03/24 09:50:43;;;;;;;3.50;0.85;;;10.50;65.80;12.00;100161.00;;;;4993836;28;20263;-77
2024/03/24 09:53:11;;;;;;;3.17;0.70;;;10.50;66.10;12.00;100172.00;;;;4992628;28;20226;-74
2024/03/24 09:55:38;;;;;;;1.58;0.40;;;10.60;66.30;12.10;100159.00;;;;4992377;28;20584;-76
2024/03/24 09:58:06;;;;;;;1.75;0.65;;;10.70;66.60;12.20;100167.00;;;;4992815;28;20659;-77
2024/03/24 10:00:33;;;;;;;1.42;0.43;;;10.80;66.70;12.30;100162.00;;;;4987885;28;20218;-76
2024/03/24 10:03:00;;;;;;;3.95;0.65;;;10.80;66.50;12.30;100163.00;;;;4981149;28;20293;-75
2024/03/24 10:05:29;;;;;;;2.33;0.80;;;10.90;66.50;12.40;100167.00;;;;4992480;28;20190;-82
2024/03/24 10:07:59;;;;;;;1.30;0.45;;;10.90;66.40;12.40;100167.00;;;;4990515;28;20677;-80
2024/03/24 10:10:27;;;;;;;3.17;0.60;;;11.00;66.40;12.50;100165.00;;;;4991157;28;20663;-79
2024/03/24 10:12:54;;;;;;;4.03;0.75;;;11.00;66.20;12.50;100166.00;;;;4991682;28;20226;-80
2024/03/24 10:15:25;;;;;;;2.38;0.68;;;11.00;66.20;12.60;100163.00;;;;4986978;28;20224;-79
2024/03/24 10:18:06;;;;;;;3.53;0.77;;;11.10;66.10;12.50;100161.00;;;;4990539;28;20202;-78
2024/03/24 10:20:34;;;;;;;1.88;0.70;;;11.10;66.00;12.60;100165.00;;;;4985520;28;20220;-79
2024/03/24 10:23:03;;;;;;;7.88;1.30;;;11.10;65.90;12.70;100155.00;;;;4991846;28;20209;-79
2024/03/24 10:25:32;;;;;;;2.55;0.77;;;11.20;65.90;12.70;100162.00;;;;4993166;28;20198;-79
2024/03/24 10:28:00;;;;;;;4.53;0.82;;;11.20;65.90;12.80;100156.00;;;;4989218;28;20197;-79
2024/03/24 10:30:28;;;;;;;3.17;0.80;;;11.20;66.10;12.80;100153.00;;;;4990984;28;20206;-78
2024/03/24 10:32:54;;;;;;;5.35;1.27;;;11.30;66.20;12.90;100158.00;;;;4989757;28;20316;-82
2024/03/24 10:35:21;;;;;;;6.53;1.23;;;11.30;66.40;13.00;100160.00;;;;4992117;28;20197;-80
2024/03/24 10:37:47;;;;;;;5.97;1.10;;;11.40;66.30;13.00;100153.00;;;;4992161;28;20210;-79
2024/03/24 10:40:16;;;;;;;6.13;1.48;;;11.40;66.30;13.10;100160.00;;;;4991388;28;20198;-79
2024/03/24 10:42:48;;;;;;;5.65;1.08;;;11.40;66.30;13.10;100153.00;;;;4992077;28;20205;-78
2024/03/24 10:45:22;;;;;;;6.40;1.40;;;11.50;67.10;13.20;100164.00;;;;4988904;28;20197;-78
2024/03/24 10:47:53;;;;;;;3.40;0.88;;;11.60;66.20;13.20;100166.00;;;;4990852;28;20659;-79
2024/03/24 10:50:20;;;;;;;4.93;1.33;;;11.60;66.00;13.30;100168.00;;;;4989414;28;20197;-79